sensor_id;sensor_type;location;lat;lon;timestamp;noise_LAeq;noise_LA_min;noise_LA_max;noise_LA01;noise_LA95
80864;Laerm;70936;51.680;5.974;2023-09-08T00:01:31;41.94;34.08;60.68;;
80864;Laerm;70936;51.680;5.974;2023-09-08T00:05:31;36.33;33.63;40.68;;
80864;Laerm;70936;51.680;5.974;2023-09-08T00:09:31;36.29;33.47;46.21;;
80864;Laerm;70936;51.680;5.974;2023-09-08T00:13:31;40.19;33.38;57.35;;
80864;Laerm;70936;51.680;5.974;2023-09-08T00:17:31;37.21;34.22;42.43;;
80864;Laerm;70936;51.680;5.974;2023-09-08T00:21:31;37.44;34.73;43.57;;
80864;Laerm;70936;51.680;5.974;2023-09-08T00:25:31;36.96;33.91;43.35;;
80864;Laerm;70936;51.680;5.974;2023-09-08T00:29:31;36.62;33.93;41.5;;
80864;Laerm;70936;51.680;5.974;2023-09-08T00:33:31;36.89;33.43;45.18;;
80864;Laerm;70936;51.680;5.974;2023-09-08T00:37:31;36.51;33.79;42.74;;
80864;Laerm;70936;51.680;5.974;2023-09-08T00:41:31;37.9;35.13;46.14;;
80864;Laerm;70936;51.680;5.974;2023-09-08T00:45:31;37.2;34.52;41.01;;
80864;Laerm;70936;51.680;5.974;2023-09-08T00:49:31;37.84;34.62;44.11;;
80864;Laerm;70936;51.680;5.974;2023-09-08T00:53:31;42.34;35.11;60.47;;
80864;Laerm;70936;51.680;5.974;2023-09-08T00:57:31;37.34;34.67;41.69;;
80864;Laerm;70936;51.680;5.974;2023-09-08T01:01:31;37.8;33.96;48.97;;
80864;Laerm;70936;51.680;5.974;2023-09-08T01:05:31;38.19;34.94;44.15;;
80864;Laerm;70936;51.680;5.974;2023-09-08T01:09:31;39.24;35.49;48.73;;
80864;Laerm;70936;51.680;5.974;2023-09-08T01:13:31;37.82;34.93;43.82;;
80864;Laerm;70936;51.680;5.974;2023-09-08T01:17:31;38.13;35.17;44.53;;
80864;Laerm;70936;51.680;5.974;2023-09-08T01:22:41;39.19;35.48;52.08;;
80864;Laerm;70936;51.680;5.974;2023-09-08T01:25:31;37.23;34.7;50.1;;
80864;Laerm;70936;51.680;5.974;2023-09-08T01:29:31;38.4;35.14;44.45;;
80864;Laerm;70936;51.680;5.974;2023-09-08T01:33:31;40.85;34.58;58.04;;
80864;Laerm;70936;51.680;5.974;2023-09-08T01:37:31;36.89;33.86;52.87;;
80864;Laerm;70936;51.680;5.974;2023-09-08T01:41:31;37.26;34.39;43.61;;
80864;Laerm;70936;51.680;5.974;2023-09-08T01:45:31;38.4;35.12;42.29;;
80864;Laerm;70936;51.680;5.974;2023-09-08T01:49:31;47.37;35.39;65.19;;
80864;Laerm;70936;51.680;5.974;2023-09-08T01:53:31;43.58;35.55;61.97;;
80864;Laerm;70936;51.680;5.974;2023-09-08T01:57:31;39.44;35.6;44.53;;
80864;Laerm;70936;51.680;5.974;2023-09-08T02:01:31;38.86;34.92;49.73;;
80864;Laerm;70936;51.680;5.974;2023-09-08T02:05:31;37.35;34.77;48.16;;
80864;Laerm;70936;51.680;5.974;2023-09-08T02:09:32;45.95;35.13;65.7;;
80864;Laerm;70936;51.680;5.974;2023-09-08T02:13:31;36.94;34.29;41.58;;
80864;Laerm;70936;51.680;5.974;2023-09-08T02:17:31;39.19;35.6;44.05;;
80864;Laerm;70936;51.680;5.974;2023-09-08T02:21:31;51.65;37.03;73.77;;
80864;Laerm;70936;51.680;5.974;2023-09-08T02:25:31;49.1;35.27;65.41;;
80864;Laerm;70936;51.680;5.974;2023-09-08T02:29:31;38.9;35.88;43.37;;
80864;Laerm;70936;51.680;5.974;2023-09-08T02:33:31;38.53;35.34;43.63;;
80864;Laerm;70936;51.680;5.974;2023-09-08T02:37:31;47.83;35.23;66.89;;
80864;Laerm;70936;51.680;5.974;2023-09-08T02:41:31;37.87;34.8;44.08;;
80864;Laerm;70936;51.680;5.974;2023-09-08T02:45:31;39.4;35.38;47.76;;
80864;Laerm;70936;51.680;5.974;2023-09-08T02:49:31;45.41;37.01;62.36;;
80864;Laerm;70936;51.680;5.974;2023-09-08T02:53:31;45.42;35.48;64.59;;
80864;Laerm;70936;51.680;5.974;2023-09-08T02:57:31;46.02;37.5;63.7;;
80864;Laerm;70936;51.680;5.974;2023-09-08T03:01:32;46.66;37.86;63.3;;
80864;Laerm;70936;51.680;5.974;2023-09-08T03:05:31;43.85;37.47;57.18;;
80864;Laerm;70936;51.680;5.974;2023-09-08T03:09:33;42.15;37.12;51.79;;
80864;Laerm;70936;51.680;5.974;2023-09-08T03:13:31;47.86;37.62;63.26;;
80864;Laerm;70936;51.680;5.974;2023-09-08T03:17:31;42.56;37.15;52.67;;
80864;Laerm;70936;51.680;5.974;2023-09-08T03:21:31;50.52;37.85;65.75;;
80864;Laerm;70936;51.680;5.974;2023-09-08T03:25:31;49.28;39.08;66.9;;
80864;Laerm;70936;51.680;5.974;2023-09-08T03:29:31;51.59;39.04;65.96;;
80864;Laerm;70936;51.680;5.974;2023-09-08T03:33:31;49.15;39.54;64.18;;
80864;Laerm;70936;51.680;5.974;2023-09-08T03:37:31;50.2;39.38;67.33;;
80864;Laerm;70936;51.680;5.974;2023-09-08T03:41:31;52.16;38.58;67.51;;
80864;Laerm;70936;51.680;5.974;2023-09-08T03:45:31;54.54;39.97;70.37;;
80864;Laerm;70936;51.680;5.974;2023-09-08T03:49:31;50.62;38.45;66.23;;
80864;Laerm;70936;51.680;5.974;2023-09-08T03:53:31;49.89;38.86;66.49;;
80864;Laerm;70936;51.680;5.974;2023-09-08T03:57:31;51.73;37.44;67.26;;
80864;Laerm;70936;51.680;5.974;2023-09-08T04:01:31;52.49;39.38;67.7;;
80864;Laerm;70936;51.680;5.974;2023-09-08T04:05:31;55.29;40.83;69.82;;
80864;Laerm;70936;51.680;5.974;2023-09-08T04:09:31;49.91;40.15;66.09;;
80864;Laerm;70936;51.680;5.974;2023-09-08T04:13:31;56.6;41.32;70.45;;
80864;Laerm;70936;51.680;5.974;2023-09-08T04:17:31;52.38;41.53;68.11;;
80864;Laerm;70936;51.680;5.974;2023-09-08T04:21:31;55.4;41.31;68.28;;
80864;Laerm;70936;51.680;5.974;2023-09-08T04:25:31;53.82;40.68;68.04;;
80864;Laerm;70936;51.680;5.974;2023-09-08T04:29:32;54.16;39.71;68.95;;
80864;Laerm;70936;51.680;5.974;2023-09-08T04:33:31;56.11;41.99;72.07;;
80864;Laerm;70936;51.680;5.974;2023-09-08T04:37:31;53.72;41.09;66.69;;
80864;Laerm;70936;51.680;5.974;2023-09-08T04:41:31;51.81;42.53;66.31;;
80864;Laerm;70936;51.680;5.974;2023-09-08T04:45:31;55.44;44.17;70.31;;
80864;Laerm;70936;51.680;5.974;2023-09-08T04:49:31;56.34;45.04;68.48;;
80864;Laerm;70936;51.680;5.974;2023-09-08T04:53:31;59.56;44.86;78.78;;
80864;Laerm;70936;51.680;5.974;2023-09-08T04:57:31;59.84;43.92;77.5;;
80864;Laerm;70936;51.680;5.974;2023-09-08T05:01:31;58.77;45.34;74.89;;
80864;Laerm;70936;51.680;5.974;2023-09-08T05:05:31;58.55;52.07;69.7;;
80864;Laerm;70936;51.680;5.974;2023-09-08T05:09:31;62.26;47.72;82.34;;
80864;Laerm;70936;51.680;5.974;2023-09-08T05:13:31;59.31;46.23;79.47;;
80864;Laerm;70936;51.680;5.974;2023-09-08T05:17:31;60.88;45.22;81.71;;
80864;Laerm;70936;51.680;5.974;2023-09-08T05:21:31;56.74;47.12;70.99;;
80864;Laerm;70936;51.680;5.974;2023-09-08T05:25:31;60.08;46.97;74.22;;
80864;Laerm;70936;51.680;5.974;2023-09-08T05:29:31;58.07;44.95;78.13;;
80864;Laerm;70936;51.680;5.974;2023-09-08T05:33:31;59.42;42.68;77.97;;
80864;Laerm;70936;51.680;5.974;2023-09-08T05:37:31;57.75;45.4;68.41;;
80864;Laerm;70936;51.680;5.974;2023-09-08T05:41:31;59.1;45.05;71.94;;
80864;Laerm;70936;51.680;5.974;2023-09-08T05:45:31;55.51;43.58;67.29;;
80864;Laerm;70936;51.680;5.974;2023-09-08T05:49:31;57.25;44.9;74.9;;
80864;Laerm;70936;51.680;5.974;2023-09-08T05:53:31;59.69;45.76;76.57;;
80864;Laerm;70936;51.680;5.974;2023-09-08T05:57:31;58.89;45;78.72;;
80864;Laerm;70936;51.680;5.974;2023-09-08T06:01:31;58.18;46.7;74.91;;
80864;Laerm;70936;51.680;5.974;2023-09-08T06:05:31;56.64;46.54;69.01;;
80864;Laerm;70936;51.680;5.974;2023-09-08T06:09:31;56.7;45.44;70.49;;
80864;Laerm;70936;51.680;5.974;2023-09-08T06:13:31;62.07;52.96;76.07;;
80864;Laerm;70936;51.680;5.974;2023-09-08T06:17:31;59.31;45.84;68.72;;
80864;Laerm;70936;51.680;5.974;2023-09-08T06:21:31;61.54;49.29;75.48;;
80864;Laerm;70936;51.680;5.974;2023-09-08T06:25:31;62.8;47.55;76.52;;
80864;Laerm;70936;51.680;5.974;2023-09-08T06:29:31;60.67;45.93;72.54;;
80864;Laerm;70936;51.680;5.974;2023-09-08T06:33:31;62.18;44.66;73.49;;
80864;Laerm;70936;51.680;5.974;2023-09-08T06:37:34;60.05;45.39;72.01;;
80864;Laerm;70936;51.680;5.974;2023-09-08T06:41:31;59.97;45.75;74.72;;
80864;Laerm;70936;51.680;5.974;2023-09-08T06:45:31;60.08;48.95;70.95;;
80864;Laerm;70936;51.680;5.974;2023-09-08T06:49:31;59.71;47.31;74.01;;
80864;Laerm;70936;51.680;5.974;2023-09-08T06:53:31;61.17;46.99;74.92;;
80864;Laerm;70936;51.680;5.974;2023-09-08T06:57:31;58.7;43.62;71.25;;
80864;Laerm;70936;51.680;5.974;2023-09-08T07:01:31;57.49;41.31;72.42;;
80864;Laerm;70936;51.680;5.974;2023-09-08T07:09:31;58.7;47.69;74.35;;
80864;Laerm;70936;51.680;5.974;2023-09-08T07:13:31;60.84;47.35;77.62;;
80864;Laerm;70936;51.680;5.974;2023-09-08T07:17:31;56.61;43.51;67.51;;
80864;Laerm;70936;51.680;5.974;2023-09-08T07:21:31;56.8;42.7;67.98;;
80864;Laerm;70936;51.680;5.974;2023-09-08T07:25:31;57.52;42.99;70.88;;
80864;Laerm;70936;51.680;5.974;2023-09-08T07:29:31;57.94;43.05;71.85;;
80864;Laerm;70936;51.680;5.974;2023-09-08T07:33:31;55.72;40.93;65.77;;
80864;Laerm;70936;51.680;5.974;2023-09-08T07:37:31;54.69;41.02;71.21;;
80864;Laerm;70936;51.680;5.974;2023-09-08T07:41:31;55.05;41.19;69.87;;
80864;Laerm;70936;51.680;5.974;2023-09-08T07:45:31;56.97;40.97;70.8;;
80864;Laerm;70936;51.680;5.974;2023-09-08T07:49:32;58;45.76;71.89;;
80864;Laerm;70936;51.680;5.974;2023-09-08T07:53:31;60.05;46.84;79.29;;
80864;Laerm;70936;51.680;5.974;2023-09-08T07:57:31;56.4;46.7;70.36;;
80864;Laerm;70936;51.680;5.974;2023-09-08T08:01:31;58.76;46.78;71.33;;
80864;Laerm;70936;51.680;5.974;2023-09-08T08:05:31;56.8;46.77;68.52;;
80864;Laerm;70936;51.680;5.974;2023-09-08T08:09:31;55.86;41.35;72.31;;
80864;Laerm;70936;51.680;5.974;2023-09-08T08:13:31;55.54;40.42;68.89;;
80864;Laerm;70936;51.680;5.974;2023-09-08T08:17:31;56.17;42.1;74.12;;
80864;Laerm;70936;51.680;5.974;2023-09-08T08:21:31;54.08;41.66;68.03;;
80864;Laerm;70936;51.680;5.974;2023-09-08T08:25:31;55.22;41.89;68.99;;
80864;Laerm;70936;51.680;5.974;2023-09-08T08:29:31;56.6;40.92;69.67;;
80864;Laerm;70936;51.680;5.974;2023-09-08T08:33:31;55.09;41.21;66.42;;
80864;Laerm;70936;51.680;5.974;2023-09-08T08:37:31;57.05;41.24;72.47;;
80864;Laerm;70936;51.680;5.974;2023-09-08T08:41:31;55.48;40.77;69.8;;
80864;Laerm;70936;51.680;5.974;2023-09-08T08:45:31;55.31;41.7;69.5;;
80864;Laerm;70936;51.680;5.974;2023-09-08T08:49:31;56.6;40.88;70.72;;
80864;Laerm;70936;51.680;5.974;2023-09-08T08:53:31;56.08;41.6;67.46;;
80864;Laerm;70936;51.680;5.974;2023-09-08T08:57:31;56.53;41.21;68;;
80864;Laerm;70936;51.680;5.974;2023-09-08T09:01:31;57.92;44.24;71.74;;
80864;Laerm;70936;51.680;5.974;2023-09-08T09:05:32;56.16;41.51;72.59;;
80864;Laerm;70936;51.680;5.974;2023-09-08T09:09:31;58.08;39.95;76.87;;
80864;Laerm;70936;51.680;5.974;2023-09-08T09:13:31;52.7;39.29;66.39;;
80864;Laerm;70936;51.680;5.974;2023-09-08T09:17:32;53.89;39.71;64.79;;
80864;Laerm;70936;51.680;5.974;2023-09-08T09:21:41;55.93;42.79;66.32;;
80864;Laerm;70936;51.680;5.974;2023-09-08T09:25:31;56.28;40.71;68.66;;
80864;Laerm;70936;51.680;5.974;2023-09-08T09:29:31;55.92;40.55;70.8;;
80864;Laerm;70936;51.680;5.974;2023-09-08T09:33:31;54.57;41.52;67.77;;
80864;Laerm;70936;51.680;5.974;2023-09-08T09:37:31;55.27;39.14;68.32;;
80864;Laerm;70936;51.680;5.974;2023-09-08T09:41:31;55.29;39.35;69.02;;
80864;Laerm;70936;51.680;5.974;2023-09-08T09:45:31;55.75;42.42;69.47;;
80864;Laerm;70936;51.680;5.974;2023-09-08T09:49:31;54.02;40.33;67.05;;
80864;Laerm;70936;51.680;5.974;2023-09-08T09:53:31;54.3;40.69;66.51;;
80864;Laerm;70936;51.680;5.974;2023-09-08T09:57:31;56.93;41.78;70.98;;
80864;Laerm;70936;51.680;5.974;2023-09-08T10:01:31;57.35;40.32;71.05;;
80864;Laerm;70936;51.680;5.974;2023-09-08T10:05:31;56.81;42.48;70.99;;
80864;Laerm;70936;51.680;5.974;2023-09-08T10:09:31;54.81;40.36;68.41;;
80864;Laerm;70936;51.680;5.974;2023-09-08T10:13:31;52.72;38.78;63.33;;
80864;Laerm;70936;51.680;5.974;2023-09-08T10:17:31;55.71;38.6;71.56;;
80864;Laerm;70936;51.680;5.974;2023-09-08T10:21:31;56;42.07;70.64;;
80864;Laerm;70936;51.680;5.974;2023-09-08T10:25:31;52.97;38.61;67.81;;
80864;Laerm;70936;51.680;5.974;2023-09-08T10:29:31;53.11;37.76;66.57;;
80864;Laerm;70936;51.680;5.974;2023-09-08T10:33:31;55.5;37.73;67.35;;
80864;Laerm;70936;51.680;5.974;2023-09-08T10:37:31;55.17;38.08;68.04;;
80864;Laerm;70936;51.680;5.974;2023-09-08T10:41:40;55.7;37.86;79.19;;
80864;Laerm;70936;51.680;5.974;2023-09-08T10:45:31;54.53;36.37;68.02;;
80864;Laerm;70936;51.680;5.974;2023-09-08T10:49:34;54.25;37.32;68.09;;
80864;Laerm;70936;51.680;5.974;2023-09-08T10:53:31;50.46;36.39;63.33;;
80864;Laerm;70936;51.680;5.974;2023-09-08T10:57:32;51.18;36.79;66.36;;
80864;Laerm;70936;51.680;5.974;2023-09-08T11:01:31;56.13;37.17;74.43;;
80864;Laerm;70936;51.680;5.974;2023-09-08T11:05:31;55.86;39.91;69.83;;
80864;Laerm;70936;51.680;5.974;2023-09-08T11:09:35;53.76;39.14;68.57;;
80864;Laerm;70936;51.680;5.974;2023-09-08T11:13:31;52.55;40.2;64.24;;
80864;Laerm;70936;51.680;5.974;2023-09-08T11:17:31;55;40.25;68.44;;
80864;Laerm;70936;51.680;5.974;2023-09-08T11:21:31;57.68;40.23;74.23;;
80864;Laerm;70936;51.680;5.974;2023-09-08T11:25:32;57.23;44.58;74.24;;
80864;Laerm;70936;51.680;5.974;2023-09-08T11:29:32;56.5;42.65;67.23;;
80864;Laerm;70936;51.680;5.974;2023-09-08T11:33:33;58.08;45.64;75.92;;
80864;Laerm;70936;51.680;5.974;2023-09-08T11:37:31;53.96;40.95;66.61;;
80864;Laerm;70936;51.680;5.974;2023-09-08T11:41:31;55.65;40.38;69.7;;
80864;Laerm;70936;51.680;5.974;2023-09-08T11:45:34;56.86;40.36;76.61;;
80864;Laerm;70936;51.680;5.974;2023-09-08T11:49:34;56.62;39.45;69.37;;
80864;Laerm;70936;51.680;5.974;2023-09-08T11:53:31;55.88;40.29;67.7;;
80864;Laerm;70936;51.680;5.974;2023-09-08T11:57:31;55.38;41.53;70.93;;
80864;Laerm;70936;51.680;5.974;2023-09-08T12:01:31;55.61;39.41;69.58;;
80864;Laerm;70936;51.680;5.974;2023-09-08T12:05:31;57.51;41.96;68.61;;
80864;Laerm;70936;51.680;5.974;2023-09-08T12:09:31;56.08;40.07;68.65;;
80864;Laerm;70936;51.680;5.974;2023-09-08T12:13:31;56.06;41.79;65.39;;
80864;Laerm;70936;51.680;5.974;2023-09-08T12:17:31;57.77;41.29;69.97;;
80864;Laerm;70936;51.680;5.974;2023-09-08T12:21:31;55.73;41.74;69.38;;
80864;Laerm;70936;51.680;5.974;2023-09-08T12:25:31;55.94;42.35;67.44;;
80864;Laerm;70936;51.680;5.974;2023-09-08T12:29:31;55.57;42.63;66.94;;
80864;Laerm;70936;51.680;5.974;2023-09-08T12:37:32;55.89;39.87;66.43;;
80864;Laerm;70936;51.680;5.974;2023-09-08T12:41:31;54.83;38.96;69.41;;
80864;Laerm;70936;51.680;5.974;2023-09-08T12:45:31;57.25;41.39;73.51;;
80864;Laerm;70936;51.680;5.974;2023-09-08T12:49:31;57.2;41.72;75.83;;
80864;Laerm;70936;51.680;5.974;2023-09-08T12:53:33;55.75;38.97;67.95;;
80864;Laerm;70936;51.680;5.974;2023-09-08T12:57:31;55.36;38.42;69.52;;
80864;Laerm;70936;51.680;5.974;2023-09-08T13:01:31;55.73;39.29;67.58;;
80864;Laerm;70936;51.680;5.974;2023-09-08T13:05:31;54.71;39.83;68.03;;
80864;Laerm;70936;51.680;5.974;2023-09-08T13:09:31;54.24;38.39;67.68;;
80864;Laerm;70936;51.680;5.974;2023-09-08T13:13:31;55.61;39.38;71.88;;
80864;Laerm;70936;51.680;5.974;2023-09-08T13:17:31;54.88;38.66;66.63;;
80864;Laerm;70936;51.680;5.974;2023-09-08T13:21:31;54.73;38.53;68.63;;
80864;Laerm;70936;51.680;5.974;2023-09-08T13:25:31;54.81;38.56;66.89;;
80864;Laerm;70936;51.680;5.974;2023-09-08T13:29:31;57.67;39.53;70.85;;
80864;Laerm;70936;51.680;5.974;2023-09-08T13:33:31;56.75;40.96;71.23;;
80864;Laerm;70936;51.680;5.974;2023-09-08T13:37:32;54.63;40.76;67.24;;
80864;Laerm;70936;51.680;5.974;2023-09-08T13:41:44;58.69;40.69;78.08;;
80864;Laerm;70936;51.680;5.974;2023-09-08T13:45:31;53.93;38.2;68.68;;
80864;Laerm;70936;51.680;5.974;2023-09-08T13:49:31;56.55;38.4;67.96;;
80864;Laerm;70936;51.680;5.974;2023-09-08T13:53:31;55.36;40.23;69.96;;
80864;Laerm;70936;51.680;5.974;2023-09-08T13:57:31;55.61;38.26;74.94;;
80864;Laerm;70936;51.680;5.974;2023-09-08T14:01:32;56.57;40.03;71.42;;
80864;Laerm;70936;51.680;5.974;2023-09-08T14:05:31;55.45;37.85;73.28;;
80864;Laerm;70936;51.680;5.974;2023-09-08T14:09:31;55.88;39.22;71.24;;
80864;Laerm;70936;51.680;5.974;2023-09-08T14:13:31;55.03;38.11;69.04;;
80864;Laerm;70936;51.680;5.974;2023-09-08T14:17:31;53.61;36.11;66.73;;
80864;Laerm;70936;51.680;5.974;2023-09-08T14:21:32;53.69;37.01;73.04;;
80864;Laerm;70936;51.680;5.974;2023-09-08T14:25:31;55.87;36.47;70.49;;
80864;Laerm;70936;51.680;5.974;2023-09-08T14:29:32;55.35;37.84;67.5;;
80864;Laerm;70936;51.680;5.974;2023-09-08T14:33:31;55.26;37.22;66.75;;
80864;Laerm;70936;51.680;5.974;2023-09-08T14:37:32;56.27;38.45;71.55;;
80864;Laerm;70936;51.680;5.974;2023-09-08T14:41:31;53.18;34.6;64.92;;
80864;Laerm;70936;51.680;5.974;2023-09-08T14:45:31;54.65;35.89;68.14;;
80864;Laerm;70936;51.680;5.974;2023-09-08T14:49:31;54.73;36.64;68.08;;
80864;Laerm;70936;51.680;5.974;2023-09-08T14:53:31;52.71;35.33;66.09;;
80864;Laerm;70936;51.680;5.974;2023-09-08T14:57:31;52.17;34.6;66.15;;
80864;Laerm;70936;51.680;5.974;2023-09-08T15:01:31;55.01;35.93;67.51;;
80864;Laerm;70936;51.680;5.974;2023-09-08T15:05:31;53.88;33.65;69.88;;
80864;Laerm;70936;51.680;5.974;2023-09-08T15:09:31;55.16;37.67;65.38;;
80864;Laerm;70936;51.680;5.974;2023-09-08T15:13:31;55.43;36.57;71.17;;
80864;Laerm;70936;51.680;5.974;2023-09-08T15:17:31;55.48;37.09;69.85;;
80864;Laerm;70936;51.680;5.974;2023-09-08T15:21:31;54.15;34.7;67.92;;
80864;Laerm;70936;51.680;5.974;2023-09-08T15:25:31;54.65;37.03;71.74;;
80864;Laerm;70936;51.680;5.974;2023-09-08T15:29:31;55.55;37.32;66.4;;
80864;Laerm;70936;51.680;5.974;2023-09-08T15:33:31;54.95;34.84;68.87;;
80864;Laerm;70936;51.680;5.974;2023-09-08T15:37:31;51.78;34.16;66.34;;
80864;Laerm;70936;51.680;5.974;2023-09-08T15:41:31;52.77;34.65;65.34;;
80864;Laerm;70936;51.680;5.974;2023-09-08T15:45:31;53.9;34.03;73.3;;
80864;Laerm;70936;51.680;5.974;2023-09-08T15:49:31;60.7;35.77;84.55;;
80864;Laerm;70936;51.680;5.974;2023-09-08T15:53:31;53.06;34.28;64.49;;
80864;Laerm;70936;51.680;5.974;2023-09-08T15:57:31;53.84;35.7;64.5;;
80864;Laerm;70936;51.680;5.974;2023-09-08T16:01:31;51.54;33.68;63.51;;
80864;Laerm;70936;51.680;5.974;2023-09-08T16:05:31;54.71;36.34;69.98;;
80864;Laerm;70936;51.680;5.974;2023-09-08T16:09:31;53.54;34.13;70.73;;
80864;Laerm;70936;51.680;5.974;2023-09-08T16:13:31;51.83;34.13;65.18;;
80864;Laerm;70936;51.680;5.974;2023-09-08T16:17:31;51.4;33.99;64.78;;
80864;Laerm;70936;51.680;5.974;2023-09-08T16:21:32;51.86;34.12;64.87;;
80864;Laerm;70936;51.680;5.974;2023-09-08T16:25:31;53.02;33.91;66.95;;
80864;Laerm;70936;51.680;5.974;2023-09-08T16:29:31;53.16;36.86;67.95;;
80864;Laerm;70936;51.680;5.974;2023-09-08T16:33:31;50.82;40.07;65.1;;
80864;Laerm;70936;51.680;5.974;2023-09-08T16:37:31;52.87;41.11;65.96;;
80864;Laerm;70936;51.680;5.974;2023-09-08T16:41:31;54.56;40.77;68.65;;
80864;Laerm;70936;51.680;5.974;2023-09-08T16:45:31;52.71;39.52;69.44;;
80864;Laerm;70936;51.680;5.974;2023-09-08T16:49:31;51.06;39.22;65.76;;
80864;Laerm;70936;51.680;5.974;2023-09-08T16:53:31;55.62;40.49;70.61;;
80864;Laerm;70936;51.680;5.974;2023-09-08T16:57:31;52.94;40.48;66.2;;
80864;Laerm;70936;51.680;5.974;2023-09-08T17:01:31;52.65;41.1;67.07;;
80864;Laerm;70936;51.680;5.974;2023-09-08T17:05:31;53.67;41.14;66.68;;
80864;Laerm;70936;51.680;5.974;2023-09-08T17:09:31;53.99;40.91;67.33;;
80864;Laerm;70936;51.680;5.974;2023-09-08T17:13:32;52.98;40.75;67.35;;
80864;Laerm;70936;51.680;5.974;2023-09-08T17:17:31;54.36;39.99;71.36;;
80864;Laerm;70936;51.680;5.974;2023-09-08T17:21:31;50.98;39.8;64.21;;
80864;Laerm;70936;51.680;5.974;2023-09-08T17:29:31;52.74;40.24;64.77;;
80864;Laerm;70936;51.680;5.974;2023-09-08T17:33:32;51.72;38.2;66.92;;
80864;Laerm;70936;51.680;5.974;2023-09-08T17:37:31;51.64;39.06;64.63;;
80864;Laerm;70936;51.680;5.974;2023-09-08T17:41:31;51.78;39.8;63.17;;
80864;Laerm;70936;51.680;5.974;2023-09-08T17:45:31;51.72;39.74;64.88;;
80864;Laerm;70936;51.680;5.974;2023-09-08T17:49:31;51.98;39.35;63.59;;
80864;Laerm;70936;51.680;5.974;2023-09-08T17:53:31;52.09;40.15;62.96;;
80864;Laerm;70936;51.680;5.974;2023-09-08T17:57:32;53.22;39.84;66.39;;
80864;Laerm;70936;51.680;5.974;2023-09-08T18:01:31;54.11;40.52;71.13;;
80864;Laerm;70936;51.680;5.974;2023-09-08T18:05:31;52.47;39.77;65.44;;
80864;Laerm;70936;51.680;5.974;2023-09-08T18:09:31;51.92;40.37;62.82;;
80864;Laerm;70936;51.680;5.974;2023-09-08T18:13:31;49.85;39.59;66.02;;
80864;Laerm;70936;51.680;5.974;2023-09-08T18:17:31;55.05;41.07;75.26;;
80864;Laerm;70936;51.680;5.974;2023-09-08T18:21:31;53.9;40.61;65.38;;
80864;Laerm;70936;51.680;5.974;2023-09-08T18:25:31;52.35;39.17;65.73;;
80864;Laerm;70936;51.680;5.974;2023-09-08T18:29:31;54.02;39.97;67.27;;
80864;Laerm;70936;51.680;5.974;2023-09-08T18:33:31;56.03;39.17;68.25;;
80864;Laerm;70936;51.680;5.974;2023-09-08T18:37:31;57.61;40.83;69.51;;
80864;Laerm;70936;51.680;5.974;2023-09-08T18:41:32;55.36;39.83;73.12;;
80864;Laerm;70936;51.680;5.974;2023-09-08T18:45:31;49.92;38.2;63.03;;
80864;Laerm;70936;51.680;5.974;2023-09-08T18:49:31;49.54;37.44;64.28;;
80864;Laerm;70936;51.680;5.974;2023-09-08T18:53:31;49.23;37.21;65.63;;
80864;Laerm;70936;51.680;5.974;2023-09-08T18:57:31;46.37;37.21;59.15;;
80864;Laerm;70936;51.680;5.974;2023-09-08T19:01:31;50.08;38.25;64.13;;
80864;Laerm;70936;51.680;5.974;2023-09-08T19:05:31;47.59;36.15;60.13;;
80864;Laerm;70936;51.680;5.974;2023-09-08T19:09:31;51.03;36.02;66.47;;
80864;Laerm;70936;51.680;5.974;2023-09-08T19:13:32;49.52;36.26;64.7;;
80864;Laerm;70936;51.680;5.974;2023-09-08T19:17:31;50.87;36.58;72.99;;
80864;Laerm;70936;51.680;5.974;2023-09-08T19:21:31;49.96;37.13;63.34;;
80864;Laerm;70936;51.680;5.974;2023-09-08T19:25:31;50.1;37.82;65.86;;
80864;Laerm;70936;51.680;5.974;2023-09-08T19:29:32;47.13;36.92;61.1;;
80864;Laerm;70936;51.680;5.974;2023-09-08T19:33:32;52.25;37.53;64.99;;
80864;Laerm;70936;51.680;5.974;2023-09-08T19:37:31;49.59;37.24;66.51;;
80864;Laerm;70936;51.680;5.974;2023-09-08T19:41:32;48.53;37.88;61.76;;
80864;Laerm;70936;51.680;5.974;2023-09-08T19:45:32;51.93;37.78;65.4;;
80864;Laerm;70936;51.680;5.974;2023-09-08T19:49:31;51.52;37.9;65.72;;
80864;Laerm;70936;51.680;5.974;2023-09-08T19:53:31;52.45;37.71;69.35;;
80864;Laerm;70936;51.680;5.974;2023-09-08T19:57:31;50.96;37.33;66.89;;
80864;Laerm;70936;51.680;5.974;2023-09-08T20:01:32;52.36;39.02;65.05;;
80864;Laerm;70936;51.680;5.974;2023-09-08T20:05:32;51.43;38.21;64.03;;
80864;Laerm;70936;51.680;5.974;2023-09-08T20:09:32;49.56;36.54;64.11;;
80864;Laerm;70936;51.680;5.974;2023-09-08T20:13:31;51.24;36.46;67.24;;
80864;Laerm;70936;51.680;5.974;2023-09-08T20:17:31;48.25;37.06;65.47;;
80864;Laerm;70936;51.680;5.974;2023-09-08T20:21:32;50.99;37.6;64.73;;
80864;Laerm;70936;51.680;5.974;2023-09-08T20:25:32;43.52;37.58;60.2;;
80864;Laerm;70936;51.680;5.974;2023-09-08T20:29:32;45.96;38.1;63.18;;
80864;Laerm;70936;51.680;5.974;2023-09-08T20:33:31;52.02;38.05;68.05;;
80864;Laerm;70936;51.680;5.974;2023-09-08T20:37:31;48.18;38.19;65.14;;
80864;Laerm;70936;51.680;5.974;2023-09-08T20:41:31;48.18;38.3;63;;
80864;Laerm;70936;51.680;5.974;2023-09-08T20:45:31;48.19;38.8;64.03;;
80864;Laerm;70936;51.680;5.974;2023-09-08T20:49:31;49.29;38.12;64.58;;
80864;Laerm;70936;51.680;5.974;2023-09-08T20:53:32;50.45;39.08;66.33;;
80864;Laerm;70936;51.680;5.974;2023-09-08T20:57:31;51.31;37.84;65.24;;
80864;Laerm;70936;51.680;5.974;2023-09-08T21:01:32;42.65;37.81;50.58;;
80864;Laerm;70936;51.680;5.974;2023-09-08T21:05:31;47.31;37.28;64.76;;
80864;Laerm;70936;51.680;5.974;2023-09-08T21:09:31;46.98;37.51;61.84;;
80864;Laerm;70936;51.680;5.974;2023-09-08T21:17:32;51.59;36.92;72.33;;
80864;Laerm;70936;51.680;5.974;2023-09-08T21:21:32;43.51;37.69;63.15;;
80864;Laerm;70936;51.680;5.974;2023-09-08T21:25:32;46.98;37.33;69.4;;
80864;Laerm;70936;51.680;5.974;2023-09-08T21:29:31;48.85;38.78;65.5;;
80864;Laerm;70936;51.680;5.974;2023-09-08T21:33:32;50.2;39.12;65.9;;
80864;Laerm;70936;51.680;5.974;2023-09-08T21:37:31;47.87;38.47;65.3;;
80864;Laerm;70936;51.680;5.974;2023-09-08T21:41:32;43.61;37.21;57.2;;
80864;Laerm;70936;51.680;5.974;2023-09-08T21:45:31;40.11;37.01;51.08;;
80864;Laerm;70936;51.680;5.974;2023-09-08T21:49:32;41.62;36.68;57.3;;
80864;Laerm;70936;51.680;5.974;2023-09-08T21:53:32;47.33;37.32;62.2;;
80864;Laerm;70936;51.680;5.974;2023-09-08T21:57:32;43.54;37.45;59;;
80864;Laerm;70936;51.680;5.974;2023-09-08T22:01:32;47.89;37.76;62.72;;
80864;Laerm;70936;51.680;5.974;2023-09-08T22:05:31;46.75;36.19;65.04;;
80864;Laerm;70936;51.680;5.974;2023-09-08T22:09:32;42.81;37.39;59.9;;
80864;Laerm;70936;51.680;5.974;2023-09-08T22:13:32;47.65;37.9;65.63;;
80864;Laerm;70936;51.680;5.974;2023-09-08T22:17:31;45.53;37.67;61.77;;
80864;Laerm;70936;51.680;5.974;2023-09-08T22:21:32;44;37.53;61.32;;
80864;Laerm;70936;51.680;5.974;2023-09-08T22:25:32;43.17;38.03;57.52;;
80864;Laerm;70936;51.680;5.974;2023-09-08T22:29:32;46.83;37.38;67.51;;
80864;Laerm;70936;51.680;5.974;2023-09-08T22:33:32;48.35;38.27;64.46;;
80864;Laerm;70936;51.680;5.974;2023-09-08T22:37:33;48.04;38.15;65.42;;
80864;Laerm;70936;51.680;5.974;2023-09-08T22:41:32;47.02;38.58;64.48;;
80864;Laerm;70936;51.680;5.974;2023-09-08T22:45:31;58.11;38.6;78.64;;